Terminal Aerodrome Forecast
Issued by NWS

Home | Current Version | Previous Version | Text Only | Print | Product List | Glossary On
Versions: 1 2 3 4 5 6 7 8 9 10 11 12 13
000
FTUS45 KABQ 212300
TAFROW
TAF
KROW 212339Z 2200/2224 15011KT P6SM SCT100
     FM220200 17011KT P6SM SCT100 SCT150
     FM220400 17008KT P6SM VCSH BKN100 BKN150
     FM220800 18006KT P6SM BKN090 BKN150
     FM221800 17011KT P6SM VCSH SCT060 BKN130
     FM222100 19011G19KT P6SM VCTS BKN060CB BKN120=

USA.gov is the U.S. government's official web portal to all federal, state and local government web resources and services.